sensor_id;sensor_type;location;lat;lon;timestamp;P1;durP1;ratioP1;P2;durP2;ratioP2
45254;SDS011;30989;52.078;21.014;2023-05-23T00:00:22;12.00;;;5.68;;
45254;SDS011;30989;52.078;21.014;2023-05-23T00:02:47;15.13;;;6.15;;
45254;SDS011;30989;52.078;21.014;2023-05-23T00:05:13;10.27;;;5.57;;
45254;SDS011;30989;52.078;21.014;2023-05-23T00:07:42;12.15;;;5.47;;
45254;SDS011;30989;52.078;21.014;2023-05-23T00:10:08;10.98;;;5.20;;
45254;SDS011;30989;52.078;21.014;2023-05-23T00:12:34;10.45;;;5.13;;
45254;SDS011;30989;52.078;21.014;2023-05-23T00:15:01;11.20;;;5.55;;
45254;SDS011;30989;52.078;21.014;2023-05-23T00:17:27;9.13;;;4.43;;
45254;SDS011;30989;52.078;21.014;2023-05-23T00:19:53;10.63;;;5.40;;
45254;SDS011;30989;52.078;21.014;2023-05-23T00:22:20;10.20;;;5.55;;
45254;SDS011;30989;52.078;21.014;2023-05-23T00:24:46;12.75;;;5.43;;
45254;SDS011;30989;52.078;21.014;2023-05-23T00:27:11;10.65;;;4.60;;
45254;SDS011;30989;52.078;21.014;2023-05-23T00:29:36;10.27;;;5.95;;
45254;SDS011;30989;52.078;21.014;2023-05-23T00:32:02;15.77;;;5.38;;
45254;SDS011;30989;52.078;21.014;2023-05-23T00:34:27;15.55;;;4.45;;
45254;SDS011;30989;52.078;21.014;2023-05-23T00:36:53;12.00;;;6.28;;
45254;SDS011;30989;52.078;21.014;2023-05-23T00:39:18;9.93;;;5.45;;
45254;SDS011;30989;52.078;21.014;2023-05-23T00:41:45;13.80;;;6.18;;
45254;SDS011;30989;52.078;21.014;2023-05-23T00:44:11;10.13;;;5.15;;
45254;SDS011;30989;52.078;21.014;2023-05-23T00:46:37;16.83;;;6.57;;
45254;SDS011;30989;52.078;21.014;2023-05-23T00:49:03;15.55;;;6.05;;
45254;SDS011;30989;52.078;21.014;2023-05-23T00:51:28;12.05;;;5.53;;
45254;SDS011;30989;52.078;21.014;2023-05-23T00:53:55;14.25;;;5.70;;
45254;SDS011;30989;52.078;21.014;2023-05-23T00:56:21;10.00;;;5.47;;
45254;SDS011;30989;52.078;21.014;2023-05-23T00:58:47;13.13;;;5.75;;
45254;SDS011;30989;52.078;21.014;2023-05-23T01:01:13;15.98;;;6.00;;
45254;SDS011;30989;52.078;21.014;2023-05-23T01:03:39;11.20;;;5.45;;
45254;SDS011;30989;52.078;21.014;2023-05-23T01:06:05;17.33;;;5.90;;
45254;SDS011;30989;52.078;21.014;2023-05-23T01:08:31;16.40;;;6.63;;
45254;SDS011;30989;52.078;21.014;2023-05-23T01:10:57;12.15;;;5.93;;
45254;SDS011;30989;52.078;21.014;2023-05-23T01:13:33;13.10;;;6.18;;
45254;SDS011;30989;52.078;21.014;2023-05-23T01:16:06;18.55;;;5.53;;
45254;SDS011;30989;52.078;21.014;2023-05-23T01:19:36;10.10;;;5.65;;
45254;SDS011;30989;52.078;21.014;2023-05-23T01:21:32;11.65;;;5.82;;
45254;SDS011;30989;52.078;21.014;2023-05-23T01:29:49;11.57;;;6.20;;
45254;SDS011;30989;52.078;21.014;2023-05-23T01:32:21;12.02;;;6.38;;
45254;SDS011;30989;52.078;21.014;2023-05-23T01:34:49;13.68;;;5.57;;
45254;SDS011;30989;52.078;21.014;2023-05-23T01:37:18;9.80;;;5.25;;
45254;SDS011;30989;52.078;21.014;2023-05-23T01:39:44;10.45;;;5.35;;
45254;SDS011;30989;52.078;21.014;2023-05-23T01:42:09;11.85;;;5.35;;
45254;SDS011;30989;52.078;21.014;2023-05-23T01:44:35;17.02;;;6.22;;
45254;SDS011;30989;52.078;21.014;2023-05-23T01:47:02;9.85;;;5.07;;
45254;SDS011;30989;52.078;21.014;2023-05-23T01:49:31;14.48;;;5.43;;
45254;SDS011;30989;52.078;21.014;2023-05-23T01:51:59;10.52;;;5.10;;
45254;SDS011;30989;52.078;21.014;2023-05-23T01:54:27;10.70;;;5.50;;
45254;SDS011;30989;52.078;21.014;2023-05-23T01:56:54;9.55;;;5.20;;
45254;SDS011;30989;52.078;21.014;2023-05-23T01:59:21;13.70;;;6.03;;
45254;SDS011;30989;52.078;21.014;2023-05-23T02:01:47;17.50;;;6.13;;
45254;SDS011;30989;52.078;21.014;2023-05-23T02:04:13;13.85;;;5.53;;
45254;SDS011;30989;52.078;21.014;2023-05-23T02:06:39;13.30;;;5.68;;
45254;SDS011;30989;52.078;21.014;2023-05-23T02:09:08;11.93;;;5.20;;
45254;SDS011;30989;52.078;21.014;2023-05-23T02:11:34;9.75;;;5.00;;
45254;SDS011;30989;52.078;21.014;2023-05-23T02:14:00;12.48;;;5.65;;
45254;SDS011;30989;52.078;21.014;2023-05-23T02:16:27;14.07;;;4.50;;
45254;SDS011;30989;52.078;21.014;2023-05-23T02:18:53;8.18;;;5.28;;
45254;SDS011;30989;52.078;21.014;2023-05-23T02:21:20;8.85;;;4.72;;
45254;SDS011;30989;52.078;21.014;2023-05-23T02:23:48;15.07;;;5.50;;
45254;SDS011;30989;52.078;21.014;2023-05-23T02:26:15;10.15;;;4.95;;
45254;SDS011;30989;52.078;21.014;2023-05-23T02:28:42;19.95;;;5.60;;
45254;SDS011;30989;52.078;21.014;2023-05-23T02:31:07;10.80;;;5.32;;
45254;SDS011;30989;52.078;21.014;2023-05-23T02:33:33;10.50;;;5.25;;
45254;SDS011;30989;52.078;21.014;2023-05-23T02:35:58;12.00;;;4.53;;
45254;SDS011;30989;52.078;21.014;2023-05-23T02:38:24;8.32;;;4.72;;
45254;SDS011;30989;52.078;21.014;2023-05-23T02:40:51;9.52;;;4.57;;
45254;SDS011;30989;52.078;21.014;2023-05-23T02:43:18;13.18;;;5.45;;
45254;SDS011;30989;52.078;21.014;2023-05-23T02:45:44;13.10;;;4.88;;
45254;SDS011;30989;52.078;21.014;2023-05-23T02:48:09;11.63;;;5.65;;
45254;SDS011;30989;52.078;21.014;2023-05-23T02:50:37;10.27;;;5.18;;
45254;SDS011;30989;52.078;21.014;2023-05-23T02:53:02;10.73;;;4.78;;
45254;SDS011;30989;52.078;21.014;2023-05-23T02:55:28;11.98;;;6.28;;
45254;SDS011;30989;52.078;21.014;2023-05-23T02:57:53;15.38;;;5.00;;
45254;SDS011;30989;52.078;21.014;2023-05-23T03:00:19;11.00;;;5.38;;
45254;SDS011;30989;52.078;21.014;2023-05-23T03:02:50;13.13;;;5.70;;
45254;SDS011;30989;52.078;21.014;2023-05-23T03:05:15;12.05;;;5.32;;
45254;SDS011;30989;52.078;21.014;2023-05-23T03:07:41;20.60;;;6.22;;
45254;SDS011;30989;52.078;21.014;2023-05-23T03:10:06;11.93;;;5.35;;
45254;SDS011;30989;52.078;21.014;2023-05-23T03:12:32;11.45;;;5.72;;
45254;SDS011;30989;52.078;21.014;2023-05-23T03:14:58;11.93;;;5.75;;
45254;SDS011;30989;52.078;21.014;2023-05-23T03:17:24;11.70;;;5.85;;
45254;SDS011;30989;52.078;21.014;2023-05-23T03:19:50;10.98;;;5.43;;
45254;SDS011;30989;52.078;21.014;2023-05-23T03:22:17;10.65;;;5.53;;
45254;SDS011;30989;52.078;21.014;2023-05-23T03:24:42;16.63;;;5.85;;
45254;SDS011;30989;52.078;21.014;2023-05-23T03:27:08;12.38;;;6.05;;
45254;SDS011;30989;52.078;21.014;2023-05-23T03:29:33;11.82;;;5.97;;
45254;SDS011;30989;52.078;21.014;2023-05-23T03:31:58;10.82;;;5.47;;
45254;SDS011;30989;52.078;21.014;2023-05-23T03:34:24;11.70;;;5.90;;
45254;SDS011;30989;52.078;21.014;2023-05-23T03:36:51;10.93;;;5.97;;
45254;SDS011;30989;52.078;21.014;2023-05-23T03:39:16;13.15;;;6.68;;
45254;SDS011;30989;52.078;21.014;2023-05-23T03:41:42;13.52;;;5.43;;
45254;SDS011;30989;52.078;21.014;2023-05-23T03:44:07;12.23;;;6.30;;
45254;SDS011;30989;52.078;21.014;2023-05-23T03:46:33;17.67;;;5.78;;
45254;SDS011;30989;52.078;21.014;2023-05-23T03:48:58;17.27;;;5.57;;
45254;SDS011;30989;52.078;21.014;2023-05-23T03:51:24;16.92;;;6.28;;
45254;SDS011;30989;52.078;21.014;2023-05-23T03:53:49;14.45;;;6.57;;
45254;SDS011;30989;52.078;21.014;2023-05-23T03:56:16;11.43;;;5.45;;
45254;SDS011;30989;52.078;21.014;2023-05-23T03:58:41;12.13;;;6.03;;
45254;SDS011;30989;52.078;21.014;2023-05-23T04:01:11;10.90;;;5.90;;
45254;SDS011;30989;52.078;21.014;2023-05-23T04:03:38;18.48;;;6.30;;
45254;SDS011;30989;52.078;21.014;2023-05-23T04:06:03;13.25;;;5.82;;
45254;SDS011;30989;52.078;21.014;2023-05-23T04:08:29;10.40;;;5.13;;
45254;SDS011;30989;52.078;21.014;2023-05-23T04:10:59;9.43;;;5.55;;
45254;SDS011;30989;52.078;21.014;2023-05-23T04:13:26;14.95;;;4.75;;
45254;SDS011;30989;52.078;21.014;2023-05-23T04:15:53;16.75;;;4.97;;
45254;SDS011;30989;52.078;21.014;2023-05-23T04:18:22;10.60;;;4.97;;
45254;SDS011;30989;52.078;21.014;2023-05-23T04:20:48;10.25;;;4.82;;
45254;SDS011;30989;52.078;21.014;2023-05-23T04:23:13;10.20;;;5.10;;
45254;SDS011;30989;52.078;21.014;2023-05-23T04:25:46;11.93;;;4.88;;
45254;SDS011;30989;52.078;21.014;2023-05-23T04:28:30;13.60;;;5.15;;
45254;SDS011;30989;52.078;21.014;2023-05-23T04:30:55;10.90;;;4.80;;
45254;SDS011;30989;52.078;21.014;2023-05-23T04:33:25;9.05;;;4.13;;
45254;SDS011;30989;52.078;21.014;2023-05-23T04:35:53;10.48;;;5.00;;
45254;SDS011;30989;52.078;21.014;2023-05-23T04:38:18;10.10;;;4.60;;
45254;SDS011;30989;52.078;21.014;2023-05-23T04:40:46;10.13;;;4.22;;
45254;SDS011;30989;52.078;21.014;2023-05-23T04:43:30;10.60;;;4.55;;
45254;SDS011;30989;52.078;21.014;2023-05-23T04:46:10;21.65;;;4.07;;
45254;SDS011;30989;52.078;21.014;2023-05-23T04:48:46;12.07;;;4.82;;
45254;SDS011;30989;52.078;21.014;2023-05-23T04:51:12;11.57;;;4.63;;
45254;SDS011;30989;52.078;21.014;2023-05-23T04:53:49;16.75;;;5.07;;
45254;SDS011;30989;52.078;21.014;2023-05-23T04:56:15;12.65;;;4.13;;
45254;SDS011;30989;52.078;21.014;2023-05-23T04:58:51;9.55;;;4.20;;
45254;SDS011;30989;52.078;21.014;2023-05-23T05:01:16;11.25;;;3.95;;
45254;SDS011;30989;52.078;21.014;2023-05-23T05:03:42;8.27;;;4.22;;
45254;SDS011;30989;52.078;21.014;2023-05-23T05:06:07;8.63;;;3.70;;
45254;SDS011;30989;52.078;21.014;2023-05-23T05:08:34;7.72;;;3.95;;
45254;SDS011;30989;52.078;21.014;2023-05-23T05:11:00;10.43;;;3.63;;
45254;SDS011;30989;52.078;21.014;2023-05-23T05:13:26;11.23;;;4.00;;
45254;SDS011;30989;52.078;21.014;2023-05-23T05:15:54;7.13;;;3.72;;
45254;SDS011;30989;52.078;21.014;2023-05-23T05:18:20;6.13;;;3.50;;
45254;SDS011;30989;52.078;21.014;2023-05-23T05:20:45;6.85;;;3.47;;
45254;SDS011;30989;52.078;21.014;2023-05-23T05:23:12;10.35;;;3.65;;
45254;SDS011;30989;52.078;21.014;2023-05-23T05:25:38;7.55;;;3.80;;
45254;SDS011;30989;52.078;21.014;2023-05-23T05:28:05;11.50;;;4.70;;
45254;SDS011;30989;52.078;21.014;2023-05-23T05:30:34;8.45;;;3.40;;
45254;SDS011;30989;52.078;21.014;2023-05-23T05:33:00;9.00;;;4.47;;
45254;SDS011;30989;52.078;21.014;2023-05-23T05:35:29;12.85;;;3.78;;
45254;SDS011;30989;52.078;21.014;2023-05-23T05:37:55;12.07;;;3.55;;
45254;SDS011;30989;52.078;21.014;2023-05-23T05:40:20;9.98;;;4.28;;
45254;SDS011;30989;52.078;21.014;2023-05-23T05:42:46;5.50;;;3.08;;
45254;SDS011;30989;52.078;21.014;2023-05-23T05:45:11;7.80;;;3.20;;
45254;SDS011;30989;52.078;21.014;2023-05-23T05:47:39;11.27;;;3.58;;
45254;SDS011;30989;52.078;21.014;2023-05-23T05:50:04;11.45;;;3.60;;
45254;SDS011;30989;52.078;21.014;2023-05-23T05:52:32;6.97;;;2.95;;
45254;SDS011;30989;52.078;21.014;2023-05-23T05:55:00;9.98;;;4.03;;
45254;SDS011;30989;52.078;21.014;2023-05-23T05:57:26;5.53;;;2.40;;
45254;SDS011;30989;52.078;21.014;2023-05-23T05:59:51;5.93;;;3.08;;
45254;SDS011;30989;52.078;21.014;2023-05-23T06:02:16;7.38;;;3.15;;
45254;SDS011;30989;52.078;21.014;2023-05-23T06:04:42;9.88;;;2.90;;
45254;SDS011;30989;52.078;21.014;2023-05-23T06:07:07;9.32;;;3.25;;
45254;SDS011;30989;52.078;21.014;2023-05-23T06:09:33;6.18;;;2.75;;
45254;SDS011;30989;52.078;21.014;2023-05-23T06:11:58;9.38;;;2.80;;
45254;SDS011;30989;52.078;21.014;2023-05-23T06:14:24;9.70;;;2.88;;
45254;SDS011;30989;52.078;21.014;2023-05-23T06:16:51;5.97;;;2.60;;
45254;SDS011;30989;52.078;21.014;2023-05-23T06:19:17;7.35;;;3.22;;
45254;SDS011;30989;52.078;21.014;2023-05-23T06:21:43;7.40;;;3.17;;
45254;SDS011;30989;52.078;21.014;2023-05-23T06:24:10;4.63;;;2.20;;
45254;SDS011;30989;52.078;21.014;2023-05-23T06:26:35;16.45;;;2.88;;
45254;SDS011;30989;52.078;21.014;2023-05-23T06:29:02;7.82;;;2.60;;
45254;SDS011;30989;52.078;21.014;2023-05-23T06:31:27;4.30;;;2.40;;
45254;SDS011;30989;52.078;21.014;2023-05-23T06:33:53;11.25;;;4.22;;
45254;SDS011;30989;52.078;21.014;2023-05-23T06:36:18;10.50;;;3.17;;
45254;SDS011;30989;52.078;21.014;2023-05-23T06:38:44;5.22;;;2.28;;
45254;SDS011;30989;52.078;21.014;2023-05-23T06:41:09;6.50;;;2.67;;
45254;SDS011;30989;52.078;21.014;2023-05-23T06:43:35;8.85;;;2.67;;
45254;SDS011;30989;52.078;21.014;2023-05-23T06:46:20;6.68;;;2.97;;
45254;SDS011;30989;52.078;21.014;2023-05-23T06:48:46;6.75;;;2.08;;
45254;SDS011;30989;52.078;21.014;2023-05-23T06:51:12;12.10;;;3.03;;
45254;SDS011;30989;52.078;21.014;2023-05-23T06:53:37;3.30;;;1.85;;
45254;SDS011;30989;52.078;21.014;2023-05-23T06:56:04;4.05;;;1.92;;
45254;SDS011;30989;52.078;21.014;2023-05-23T06:58:36;6.05;;;2.10;;
45254;SDS011;30989;52.078;21.014;2023-05-23T07:01:01;8.02;;;1.77;;
45254;SDS011;30989;52.078;21.014;2023-05-23T07:03:31;4.28;;;2.03;;
45254;SDS011;30989;52.078;21.014;2023-05-23T07:06:01;5.43;;;1.80;;
45254;SDS011;30989;52.078;21.014;2023-05-23T07:08:26;5.88;;;1.90;;
45254;SDS011;30989;52.078;21.014;2023-05-23T07:10:56;6.65;;;1.83;;
45254;SDS011;30989;52.078;21.014;2023-05-23T07:13:29;10.85;;;2.35;;
45254;SDS011;30989;52.078;21.014;2023-05-23T07:15:55;4.57;;;1.98;;
45254;SDS011;30989;52.078;21.014;2023-05-23T07:18:21;6.55;;;1.58;;
45254;SDS011;30989;52.078;21.014;2023-05-23T07:20:47;4.28;;;1.63;;
45254;SDS011;30989;52.078;21.014;2023-05-23T07:23:15;8.48;;;1.83;;
45254;SDS011;30989;52.078;21.014;2023-05-23T07:25:41;8.80;;;2.80;;
45254;SDS011;30989;52.078;21.014;2023-05-23T07:28:13;5.68;;;1.70;;
45254;SDS011;30989;52.078;21.014;2023-05-23T07:30:40;5.15;;;1.73;;
45254;SDS011;30989;52.078;21.014;2023-05-23T07:33:07;4.43;;;2.00;;
45254;SDS011;30989;52.078;21.014;2023-05-23T07:35:33;4.68;;;1.80;;
45254;SDS011;30989;52.078;21.014;2023-05-23T07:37:59;4.88;;;1.42;;
45254;SDS011;30989;52.078;21.014;2023-05-23T07:40:25;4.35;;;2.00;;
45254;SDS011;30989;52.078;21.014;2023-05-23T07:42:50;8.32;;;1.90;;
45254;SDS011;30989;52.078;21.014;2023-05-23T07:45:17;15.23;;;2.97;;
45254;SDS011;30989;52.078;21.014;2023-05-23T07:47:42;4.20;;;2.05;;
45254;SDS011;30989;52.078;21.014;2023-05-23T07:50:08;5.30;;;1.95;;
45254;SDS011;30989;52.078;21.014;2023-05-23T07:52:34;5.35;;;2.17;;
45254;SDS011;30989;52.078;21.014;2023-05-23T07:55:03;5.05;;;2.20;;
45254;SDS011;30989;52.078;21.014;2023-05-23T07:57:29;7.60;;;2.65;;
45254;SDS011;30989;52.078;21.014;2023-05-23T07:59:55;6.07;;;3.03;;
45254;SDS011;30989;52.078;21.014;2023-05-23T08:02:22;5.43;;;2.03;;
45254;SDS011;30989;52.078;21.014;2023-05-23T08:04:49;6.93;;;1.90;;
45254;SDS011;30989;52.078;21.014;2023-05-23T08:07:15;4.82;;;1.83;;
45254;SDS011;30989;52.078;21.014;2023-05-23T08:09:48;6.40;;;2.20;;
45254;SDS011;30989;52.078;21.014;2023-05-23T08:12:17;3.40;;;2.00;;
45254;SDS011;30989;52.078;21.014;2023-05-23T08:14:44;7.03;;;2.15;;
45254;SDS011;30989;52.078;21.014;2023-05-23T08:17:21;4.70;;;1.90;;
45254;SDS011;30989;52.078;21.014;2023-05-23T08:19:47;5.03;;;2.05;;
45254;SDS011;30989;52.078;21.014;2023-05-23T08:22:13;5.18;;;2.10;;
45254;SDS011;30989;52.078;21.014;2023-05-23T08:24:38;6.32;;;2.10;;
45254;SDS011;30989;52.078;21.014;2023-05-23T08:27:04;4.78;;;1.92;;
45254;SDS011;30989;52.078;21.014;2023-05-23T08:29:31;5.85;;;1.85;;
45254;SDS011;30989;52.078;21.014;2023-05-23T08:31:57;4.57;;;2.00;;
45254;SDS011;30989;52.078;21.014;2023-05-23T08:34:23;3.10;;;1.60;;
45254;SDS011;30989;52.078;21.014;2023-05-23T08:36:48;5.28;;;1.55;;
45254;SDS011;30989;52.078;21.014;2023-05-23T08:39:18;2.92;;;1.40;;
45254;SDS011;30989;52.078;21.014;2023-05-23T08:41:51;5.32;;;1.58;;
45254;SDS011;30989;52.078;21.014;2023-05-23T08:44:16;3.00;;;1.70;;
45254;SDS011;30989;52.078;21.014;2023-05-23T08:49:27;5.57;;;1.88;;
45254;SDS011;30989;52.078;21.014;2023-05-23T08:51:53;4.43;;;1.98;;
45254;SDS011;30989;52.078;21.014;2023-05-23T08:54:25;5.78;;;1.58;;
45254;SDS011;30989;52.078;21.014;2023-05-23T08:56:51;2.97;;;1.50;;
45254;SDS011;30989;52.078;21.014;2023-05-23T08:59:16;4.40;;;1.60;;
45254;SDS011;30989;52.078;21.014;2023-05-23T09:01:44;6.18;;;2.33;;
45254;SDS011;30989;52.078;21.014;2023-05-23T09:04:13;7.45;;;1.83;;
45254;SDS011;30989;52.078;21.014;2023-05-23T09:06:59;5.13;;;2.13;;
45254;SDS011;30989;52.078;21.014;2023-05-23T09:09:27;6.32;;;1.63;;
45254;SDS011;30989;52.078;21.014;2023-05-23T09:11:54;4.32;;;1.60;;
45254;SDS011;30989;52.078;21.014;2023-05-23T09:14:22;3.28;;;1.65;;
45254;SDS011;30989;52.078;21.014;2023-05-23T09:16:50;3.55;;;1.48;;
45254;SDS011;30989;52.078;21.014;2023-05-23T09:19:20;3.80;;;2.00;;
45254;SDS011;30989;52.078;21.014;2023-05-23T09:21:55;3.65;;;1.70;;
45254;SDS011;30989;52.078;21.014;2023-05-23T09:24:32;6.10;;;1.58;;
45254;SDS011;30989;52.078;21.014;2023-05-23T09:27:04;3.88;;;1.88;;
45254;SDS011;30989;52.078;21.014;2023-05-23T09:29:31;4.55;;;1.73;;
45254;SDS011;30989;52.078;21.014;2023-05-23T09:32:09;4.30;;;1.63;;
45254;SDS011;30989;52.078;21.014;2023-05-23T09:34:56;5.82;;;2.55;;
45254;SDS011;30989;52.078;21.014;2023-05-23T09:39:55;4.97;;;1.73;;
45254;SDS011;30989;52.078;21.014;2023-05-23T09:42:22;5.90;;;1.58;;
45254;SDS011;30989;52.078;21.014;2023-05-23T09:44:48;5.97;;;2.15;;
45254;SDS011;30989;52.078;21.014;2023-05-23T09:47:14;7.50;;;2.10;;
45254;SDS011;30989;52.078;21.014;2023-05-23T09:49:44;6.57;;;1.80;;
45254;SDS011;30989;52.078;21.014;2023-05-23T09:52:11;3.75;;;1.60;;
45254;SDS011;30989;52.078;21.014;2023-05-23T09:54:37;4.10;;;1.50;;
45254;SDS011;30989;52.078;21.014;2023-05-23T09:57:03;4.97;;;1.55;;
45254;SDS011;30989;52.078;21.014;2023-05-23T09:59:36;4.63;;;1.50;;
45254;SDS011;30989;52.078;21.014;2023-05-23T10:02:04;3.90;;;1.88;;
45254;SDS011;30989;52.078;21.014;2023-05-23T10:04:33;5.28;;;1.20;;
45254;SDS011;30989;52.078;21.014;2023-05-23T10:09:44;3.15;;;1.73;;
45254;SDS011;30989;52.078;21.014;2023-05-23T10:12:34;4.90;;;2.38;;
45254;SDS011;30989;52.078;21.014;2023-05-23T10:15:07;3.85;;;1.75;;
45254;SDS011;30989;52.078;21.014;2023-05-23T10:17:45;5.70;;;1.90;;
45254;SDS011;30989;52.078;21.014;2023-05-23T10:20:14;3.85;;;1.65;;
45254;SDS011;30989;52.078;21.014;2023-05-23T10:22:41;6.22;;;1.98;;
45254;SDS011;30989;52.078;21.014;2023-05-23T10:25:07;13.75;;;3.75;;
45254;SDS011;30989;52.078;21.014;2023-05-23T10:27:38;4.63;;;2.08;;
45254;SDS011;30989;52.078;21.014;2023-05-23T10:30:06;12.52;;;3.03;;
45254;SDS011;30989;52.078;21.014;2023-05-23T10:32:33;12.05;;;2.35;;
45254;SDS011;30989;52.078;21.014;2023-05-23T10:37:45;4.20;;;2.05;;
45254;SDS011;30989;52.078;21.014;2023-05-23T10:40:26;3.78;;;1.50;;
45254;SDS011;30989;52.078;21.014;2023-05-23T10:43:25;3.10;;;1.40;;
45254;SDS011;30989;52.078;21.014;2023-05-23T10:45:51;4.22;;;1.92;;
45254;SDS011;30989;52.078;21.014;2023-05-23T10:51:00;3.58;;;1.85;;
45254;SDS011;30989;52.078;21.014;2023-05-23T10:53:28;2.42;;;1.30;;
45254;SDS011;30989;52.078;21.014;2023-05-23T10:55:54;2.65;;;1.67;;
45254;SDS011;30989;52.078;21.014;2023-05-23T10:58:20;2.17;;;1.30;;
45254;SDS011;30989;52.078;21.014;2023-05-23T11:00:56;3.50;;;1.50;;
45254;SDS011;30989;52.078;21.014;2023-05-23T11:03:32;4.13;;;1.60;;
45254;SDS011;30989;52.078;21.014;2023-05-23T11:05:59;3.03;;;1.60;;
45254;SDS011;30989;52.078;21.014;2023-05-23T11:08:26;5.60;;;1.80;;
45254;SDS011;30989;52.078;21.014;2023-05-23T11:10:54;5.63;;;1.60;;
45254;SDS011;30989;52.078;21.014;2023-05-23T11:13:21;4.95;;;1.88;;
45254;SDS011;30989;52.078;21.014;2023-05-23T11:15:47;4.38;;;1.60;;
45254;SDS011;30989;52.078;21.014;2023-05-23T11:18:23;3.00;;;1.58;;
45254;SDS011;30989;52.078;21.014;2023-05-23T11:20:51;6.50;;;2.13;;
45254;SDS011;30989;52.078;21.014;2023-05-23T11:23:19;6.88;;;1.67;;
45254;SDS011;30989;52.078;21.014;2023-05-23T11:25:49;4.95;;;2.17;;
45254;SDS011;30989;52.078;21.014;2023-05-23T11:28:16;4.68;;;2.10;;
45254;SDS011;30989;52.078;21.014;2023-05-23T11:30:42;3.58;;;1.95;;
45254;SDS011;30989;52.078;21.014;2023-05-23T11:33:08;6.40;;;2.08;;
45254;SDS011;30989;52.078;21.014;2023-05-23T11:35:44;4.03;;;1.67;;
45254;SDS011;30989;52.078;21.014;2023-05-23T11:38:12;6.28;;;1.75;;
45254;SDS011;30989;52.078;21.014;2023-05-23T11:40:39;4.90;;;1.40;;
45254;SDS011;30989;52.078;21.014;2023-05-23T11:43:07;3.50;;;1.73;;
45254;SDS011;30989;52.078;21.014;2023-05-23T11:45:34;4.72;;;1.92;;
45254;SDS011;30989;52.078;21.014;2023-05-23T11:48:11;3.42;;;1.70;;
45254;SDS011;30989;52.078;21.014;2023-05-23T11:50:53;4.07;;;1.90;;
45254;SDS011;30989;52.078;21.014;2023-05-23T11:53:21;3.20;;;1.60;;
45254;SDS011;30989;52.078;21.014;2023-05-23T11:55:53;4.10;;;1.77;;
45254;SDS011;30989;52.078;21.014;2023-05-23T11:58:25;2.97;;;1.95;;
45254;SDS011;30989;52.078;21.014;2023-05-23T12:01:05;4.32;;;2.10;;
45254;SDS011;30989;52.078;21.014;2023-05-23T12:03:48;4.75;;;2.10;;
45254;SDS011;30989;52.078;21.014;2023-05-23T12:06:18;4.20;;;1.88;;
45254;SDS011;30989;52.078;21.014;2023-05-23T12:08:43;4.22;;;1.90;;
45254;SDS011;30989;52.078;21.014;2023-05-23T12:11:10;4.43;;;1.88;;
45254;SDS011;30989;52.078;21.014;2023-05-23T12:13:39;3.53;;;1.77;;
45254;SDS011;30989;52.078;21.014;2023-05-23T12:16:06;3.20;;;1.70;;
45254;SDS011;30989;52.078;21.014;2023-05-23T12:18:32;4.88;;;2.08;;
45254;SDS011;30989;52.078;21.014;2023-05-23T12:21:01;2.85;;;1.40;;
45254;SDS011;30989;52.078;21.014;2023-05-23T12:23:27;3.33;;;1.73;;
45254;SDS011;30989;52.078;21.014;2023-05-23T12:25:54;3.10;;;1.80;;
45254;SDS011;30989;52.078;21.014;2023-05-23T12:28:21;3.00;;;1.55;;
45254;SDS011;30989;52.078;21.014;2023-05-23T12:31:06;4.68;;;1.75;;
45254;SDS011;30989;52.078;21.014;2023-05-23T12:33:36;4.78;;;2.05;;
45254;SDS011;30989;52.078;21.014;2023-05-23T12:36:03;4.13;;;1.80;;
45254;SDS011;30989;52.078;21.014;2023-05-23T12:38:28;5.50;;;1.88;;
45254;SDS011;30989;52.078;21.014;2023-05-23T12:41:08;5.28;;;1.88;;
45254;SDS011;30989;52.078;21.014;2023-05-23T12:43:36;5.90;;;2.10;;
45254;SDS011;30989;52.078;21.014;2023-05-23T12:46:03;5.70;;;1.90;;
45254;SDS011;30989;52.078;21.014;2023-05-23T12:48:29;3.20;;;1.60;;
45254;SDS011;30989;52.078;21.014;2023-05-23T12:50:54;4.60;;;2.35;;
45254;SDS011;30989;52.078;21.014;2023-05-23T12:53:19;4.40;;;1.50;;
45254;SDS011;30989;52.078;21.014;2023-05-23T12:55:45;5.95;;;1.95;;
45254;SDS011;30989;52.078;21.014;2023-05-23T12:58:10;4.25;;;1.90;;
45254;SDS011;30989;52.078;21.014;2023-05-23T13:00:36;4.30;;;2.30;;
45254;SDS011;30989;52.078;21.014;2023-05-23T13:03:01;5.13;;;1.70;;
45254;SDS011;30989;52.078;21.014;2023-05-23T13:05:27;6.00;;;2.15;;
45254;SDS011;30989;52.078;21.014;2023-05-23T13:07:52;4.78;;;2.08;;
45254;SDS011;30989;52.078;21.014;2023-05-23T13:10:18;3.70;;;1.45;;
45254;SDS011;30989;52.078;21.014;2023-05-23T13:12:44;4.82;;;1.88;;
45254;SDS011;30989;52.078;21.014;2023-05-23T13:15:09;3.88;;;2.10;;
45254;SDS011;30989;52.078;21.014;2023-05-23T13:17:35;4.35;;;1.73;;
45254;SDS011;30989;52.078;21.014;2023-05-23T13:20:01;5.53;;;2.03;;
45254;SDS011;30989;52.078;21.014;2023-05-23T13:22:29;4.57;;;2.00;;
45254;SDS011;30989;52.078;21.014;2023-05-23T13:24:55;3.03;;;1.58;;
45254;SDS011;30989;52.078;21.014;2023-05-23T13:27:20;4.32;;;1.67;;
45254;SDS011;30989;52.078;21.014;2023-05-23T13:29:46;6.65;;;2.08;;
45254;SDS011;30989;52.078;21.014;2023-05-23T13:32:11;4.75;;;1.92;;
45254;SDS011;30989;52.078;21.014;2023-05-23T13:34:37;3.50;;;1.75;;
45254;SDS011;30989;52.078;21.014;2023-05-23T13:37:02;6.20;;;2.40;;
45254;SDS011;30989;52.078;21.014;2023-05-23T13:39:28;6.10;;;2.20;;
45254;SDS011;30989;52.078;21.014;2023-05-23T13:41:54;4.20;;;2.00;;
45254;SDS011;30989;52.078;21.014;2023-05-23T13:44:19;6.88;;;2.40;;
45254;SDS011;30989;52.078;21.014;2023-05-23T13:46:45;4.03;;;1.85;;
45254;SDS011;30989;52.078;21.014;2023-05-23T13:49:10;3.53;;;1.77;;
45254;SDS011;30989;52.078;21.014;2023-05-23T13:51:36;9.20;;;2.58;;
45254;SDS011;30989;52.078;21.014;2023-05-23T13:54:02;4.57;;;2.10;;
45254;SDS011;30989;52.078;21.014;2023-05-23T13:56:30;4.18;;;2.05;;
45254;SDS011;30989;52.078;21.014;2023-05-23T13:58:56;5.82;;;2.22;;
45254;SDS011;30989;52.078;21.014;2023-05-23T14:01:21;4.60;;;2.28;;
45254;SDS011;30989;52.078;21.014;2023-05-23T14:03:48;3.55;;;2.03;;
45254;SDS011;30989;52.078;21.014;2023-05-23T14:06:13;3.00;;;1.73;;
45254;SDS011;30989;52.078;21.014;2023-05-23T14:08:39;4.72;;;2.40;;
45254;SDS011;30989;52.078;21.014;2023-05-23T14:11:04;4.05;;;2.25;;
45254;SDS011;30989;52.078;21.014;2023-05-23T14:13:30;4.28;;;2.17;;
45254;SDS011;30989;52.078;21.014;2023-05-23T14:15:55;4.45;;;2.38;;
45254;SDS011;30989;52.078;21.014;2023-05-23T14:18:21;5.40;;;2.85;;
45254;SDS011;30989;52.078;21.014;2023-05-23T14:20:46;4.68;;;2.25;;
45254;SDS011;30989;52.078;21.014;2023-05-23T14:23:11;3.83;;;2.63;;
45254;SDS011;30989;52.078;21.014;2023-05-23T14:25:37;6.35;;;2.50;;
45254;SDS011;30989;52.078;21.014;2023-05-23T14:28:03;4.65;;;2.22;;
45254;SDS011;30989;52.078;21.014;2023-05-23T14:30:28;5.00;;;2.38;;
45254;SDS011;30989;52.078;21.014;2023-05-23T14:32:54;3.15;;;1.90;;
45254;SDS011;30989;52.078;21.014;2023-05-23T14:35:19;9.75;;;2.30;;
45254;SDS011;30989;52.078;21.014;2023-05-23T14:37:46;5.63;;;2.20;;
45254;SDS011;30989;52.078;21.014;2023-05-23T14:40:12;6.50;;;3.40;;
45254;SDS011;30989;52.078;21.014;2023-05-23T14:42:38;5.05;;;2.65;;
45254;SDS011;30989;52.078;21.014;2023-05-23T14:45:03;5.85;;;2.55;;
45254;SDS011;30989;52.078;21.014;2023-05-23T14:47:30;5.43;;;2.25;;
45254;SDS011;30989;52.078;21.014;2023-05-23T14:49:56;6.00;;;2.42;;
45254;SDS011;30989;52.078;21.014;2023-05-23T14:52:22;5.13;;;2.17;;